createdAt,value
2022-10-28T00:13:00.159Z,13.24
2022-10-28T00:15:31.047Z,13.20
2022-10-28T00:18:01.795Z,13.20
2022-10-28T00:20:33.862Z,13.21
2022-10-28T00:23:04.424Z,13.23
2022-10-28T00:25:34.979Z,13.24
2022-10-28T00:28:05.644Z,13.25
2022-10-28T00:30:36.397Z,13.24
2022-10-28T00:33:07.016Z,13.23
2022-10-28T00:35:37.461Z,13.21
2022-10-28T00:38:07.947Z,13.20
2022-10-28T00:40:38.558Z,13.21
2022-10-28T00:43:10.209Z,13.21
2022-10-28T00:45:40.900Z,13.20
2022-10-28T00:48:12.035Z,13.19
2022-10-28T00:50:46.685Z,13.18
2022-10-28T00:53:20.674Z,13.18
2022-10-28T00:55:51.686Z,13.19
2022-10-28T00:58:24.230Z,13.21
2022-10-28T01:00:54.853Z,13.24
2022-10-28T01:03:25.967Z,13.29
2022-10-28T01:05:57.234Z,13.33
2022-10-28T01:08:27.897Z,13.39
2022-10-28T01:11:24.514Z,13.44
2022-10-28T01:14:06.713Z,13.52
2022-10-28T01:16:42.212Z,13.58
2022-10-28T01:19:36.157Z,13.65
2022-10-28T01:22:15.947Z,13.71
2022-10-28T01:24:59.947Z,13.75
2022-10-28T01:27:57.090Z,13.81
2022-10-28T01:30:28.297Z,13.90
2022-10-28T01:33:05.441Z,13.97
2022-10-28T01:35:43.865Z,14.07
2022-10-28T01:38:29.864Z,14.14
2022-10-28T01:41:08.235Z,14.23
2022-10-28T01:43:46.239Z,14.31
2022-10-28T01:46:18.473Z,14.41
2022-10-28T01:48:52.309Z,14.49
2022-10-28T01:51:25.862Z,14.52
2022-10-28T01:53:58.459Z,14.54
2022-10-28T01:56:31.525Z,14.57
2022-10-28T01:59:02.740Z,14.59
2022-10-28T02:01:34.330Z,14.62
2022-10-28T02:04:04.923Z,14.64
2022-10-28T02:06:35.949Z,14.66
2022-10-28T02:09:14.416Z,14.66
2022-10-28T02:12:01.050Z,14.69
2022-10-28T02:14:45.340Z,14.72
2022-10-28T02:17:22.585Z,14.76
2022-10-28T02:19:55.252Z,14.80
2022-10-28T02:22:29.928Z,14.86
2022-10-28T02:25:06.415Z,14.91
2022-10-28T02:27:41.637Z,14.95
2022-10-28T02:30:16.700Z,14.99
2022-10-28T02:32:50.394Z,15.01
2022-10-28T02:35:24.344Z,15.05
2022-10-28T02:37:55.752Z,15.07
2022-10-28T02:40:28.976Z,15.10
2022-10-28T02:43:00.963Z,15.11
2022-10-28T02:45:35.365Z,15.13
2022-10-28T02:48:07.981Z,15.13
2022-10-28T02:50:41.005Z,15.13
2022-10-28T02:53:14.783Z,15.15
2022-10-28T02:55:46.719Z,15.13
2022-10-28T02:58:17.406Z,15.12
2022-10-28T03:00:49.727Z,15.08
2022-10-28T03:03:21.150Z,15.06
2022-10-28T03:05:51.869Z,15.04
2022-10-28T03:08:24.735Z,15.02
2022-10-28T03:10:58.268Z,15.00
2022-10-28T03:13:29.231Z,15.00
2022-10-28T03:15:59.880Z,14.99
2022-10-28T03:18:30.404Z,15.00
2022-10-28T03:21:00.997Z,15.00
2022-10-28T03:23:31.660Z,15.01
2022-10-28T03:26:02.203Z,15.00
2022-10-28T03:28:32.640Z,14.98
2022-10-28T03:31:03.239Z,14.96
2022-10-28T03:33:33.703Z,14.96
2022-10-28T03:36:04.377Z,14.98
2022-10-28T03:38:34.959Z,15.04
2022-10-28T03:41:05.651Z,15.07
2022-10-28T03:43:36.130Z,15.08
2022-10-28T03:46:13.980Z,15.08
2022-10-28T03:48:44.450Z,15.08
2022-10-28T03:51:14.995Z,15.04
2022-10-28T03:53:45.620Z,15.00
2022-10-28T03:56:18.697Z,14.96
2022-10-28T04:01:26.969Z,14.88
2022-10-28T04:03:57.748Z,14.81
2022-10-28T04:06:28.459Z,14.76
2022-10-28T04:09:05.080Z,14.74
2022-10-28T04:11:43.027Z,14.74
2022-10-28T04:14:13.543Z,14.73
2022-10-28T04:16:49.109Z,14.72
2022-10-28T04:19:19.556Z,14.71
2022-10-28T04:21:50.226Z,14.68
2022-10-28T04:24:28.153Z,14.65
2022-10-28T04:26:58.601Z,14.65
2022-10-28T04:29:43.664Z,14.65
2022-10-28T04:32:14.343Z,14.65
2022-10-28T04:34:44.787Z,14.63
2022-10-28T04:37:20.353Z,14.64
2022-10-28T04:39:51.260Z,14.63
2022-10-28T04:42:26.894Z,14.63
2022-10-28T04:44:57.376Z,14.62
2022-10-28T04:47:28.031Z,14.60
2022-10-28T04:49:58.493Z,14.59
2022-10-28T04:52:29.261Z,14.59
2022-10-28T04:54:59.835Z,14.62
2022-10-28T04:57:32.409Z,14.64
2022-10-28T05:00:02.953Z,14.67
2022-10-28T05:02:33.392Z,14.67
2022-10-28T05:05:04.537Z,14.64
2022-10-28T05:07:48.704Z,14.62
2022-10-28T05:10:19.375Z,14.59
2022-10-28T05:12:50.992Z,14.57
2022-10-28T05:15:27.154Z,14.52
2022-10-28T05:17:57.883Z,14.48
2022-10-28T05:20:28.618Z,14.45
2022-10-28T05:23:00.140Z,14.43
2022-10-28T05:25:30.559Z,14.42
2022-10-28T05:28:02.087Z,14.38
2022-10-28T05:30:32.790Z,14.34
2022-10-28T05:33:04.033Z,14.30
2022-10-28T05:35:34.470Z,14.25
2022-10-28T05:38:04.976Z,14.20
2022-10-28T05:40:35.943Z,14.15
2022-10-28T05:43:06.446Z,14.10
2022-10-28T05:45:36.905Z,14.03
2022-10-28T05:48:08.205Z,13.94
2022-10-28T05:50:38.665Z,13.86
2022-10-28T05:53:09.152Z,13.76
2022-10-28T05:55:42.686Z,13.70
2022-10-28T05:58:17.073Z,13.63
2022-10-28T06:00:47.640Z,13.60
2022-10-28T06:03:18.221Z,13.58
2022-10-28T06:05:48.684Z,13.57
2022-10-28T06:08:19.284Z,13.55
2022-10-28T06:10:52.935Z,13.54
2022-10-28T06:13:24.078Z,13.56
2022-10-28T06:15:55.271Z,13.58
2022-10-28T06:18:25.899Z,13.61
2022-10-28T06:20:57.773Z,13.66
2022-10-28T06:23:28.614Z,13.69
2022-10-28T06:25:59.854Z,13.73
2022-10-28T06:28:30.986Z,13.78
2022-10-28T06:31:05.799Z,13.86
2022-10-28T06:33:39.802Z,13.96
2022-10-28T06:36:10.852Z,14.06
2022-10-28T06:38:41.598Z,14.13
2022-10-28T06:41:12.863Z,14.20
2022-10-28T06:43:43.655Z,14.28
2022-10-28T06:46:14.125Z,14.36
2022-10-28T06:48:46.098Z,14.44
2022-10-28T06:51:17.260Z,14.53
2022-10-28T06:53:51.266Z,14.60
2022-10-28T06:56:21.932Z,14.66
2022-10-28T06:58:54.041Z,14.72
2022-10-28T07:01:25.021Z,14.78
2022-10-28T07:03:55.929Z,14.83
2022-10-28T07:06:26.511Z,14.89
2022-10-28T07:08:59.705Z,14.93
2022-10-28T07:11:35.384Z,14.96
2022-10-28T07:14:05.900Z,14.98
2022-10-28T07:16:36.569Z,15.03
2022-10-28T07:19:07.376Z,15.08
2022-10-28T07:21:38.471Z,15.13
2022-10-28T07:24:10.515Z,15.17
2022-10-28T07:26:41.110Z,15.21
2022-10-28T07:29:11.773Z,15.25
2022-10-28T07:31:48.097Z,15.28
2022-10-28T07:34:25.866Z,15.32
2022-10-28T07:36:57.993Z,15.35
2022-10-28T07:39:28.537Z,15.39
2022-10-28T07:42:00.445Z,15.41
2022-10-28T07:44:33.736Z,15.40
2022-10-28T07:47:04.431Z,15.42
2022-10-28T07:49:35.202Z,15.44
2022-10-28T07:52:05.881Z,15.49
2022-10-28T07:54:36.508Z,15.54
2022-10-28T07:57:07.294Z,15.60
2022-10-28T07:59:37.900Z,15.67
2022-10-28T08:02:08.491Z,15.74
2022-10-28T08:04:39.533Z,15.84
2022-10-28T08:07:10.201Z,15.97
2022-10-28T08:09:41.043Z,16.12
2022-10-28T08:12:13.083Z,16.24
2022-10-28T08:14:43.887Z,16.39
2022-10-28T08:17:14.646Z,16.48
2022-10-28T08:19:45.202Z,16.54
2022-10-28T08:22:15.722Z,16.61
2022-10-28T08:24:46.322Z,16.66
2022-10-28T08:27:16.783Z,16.69
2022-10-28T08:29:47.391Z,16.72
2022-10-28T08:32:18.455Z,16.74
2022-10-28T08:34:49.723Z,16.76
2022-10-28T08:37:20.333Z,16.75
2022-10-28T08:39:51.629Z,16.75
2022-10-28T08:42:33.575Z,16.77
2022-10-28T08:45:25.643Z,16.77
2022-10-28T08:48:04.171Z,16.77
2022-10-28T08:50:44.986Z,16.75
2022-10-28T08:53:18.101Z,16.74
2022-10-28T08:55:50.094Z,16.74
2022-10-28T08:58:23.335Z,16.75
2022-10-28T09:00:55.574Z,16.80
2022-10-28T09:03:28.610Z,16.85
2022-10-28T09:06:03.312Z,16.91
2022-10-28T09:08:38.118Z,16.96
2022-10-28T09:11:43.575Z,17.02
2022-10-28T09:14:22.934Z,17.09
2022-10-28T09:16:59.688Z,17.14
2022-10-28T09:19:39.578Z,17.24
2022-10-28T09:22:24.161Z,17.41
2022-10-28T09:24:56.770Z,17.65
2022-10-28T09:27:34.674Z,17.99
2022-10-28T09:30:19.685Z,18.46
2022-10-28T09:32:59.794Z,18.94
2022-10-28T09:35:35.926Z,19.51
2022-10-28T09:38:15.750Z,19.96
2022-10-28T09:40:53.176Z,20.72
2022-10-28T09:43:29.651Z,21.54
2022-10-28T09:46:03.415Z,21.66
2022-10-28T09:53:14.676Z,21.51
2022-10-28T09:55:47.826Z,21.92
2022-10-28T09:58:22.157Z,22.38
2022-10-28T10:00:55.280Z,22.35
2022-10-28T10:03:27.741Z,22.08
2022-10-28T10:06:00.998Z,21.68
2022-10-28T10:08:33.727Z,21.27
2022-10-28T10:11:09.694Z,20.93
2022-10-28T10:13:43.704Z,20.67
2022-10-28T10:16:20.401Z,20.86
2022-10-28T10:18:55.728Z,21.27
2022-10-28T10:21:44.321Z,21.52
2022-10-28T10:24:32.756Z,21.81
2022-10-28T10:27:14.305Z,21.89
2022-10-28T10:48:14.905Z,25.73
2022-10-28T10:50:46.756Z,26.74
2022-10-28T10:53:26.491Z,27.23
2022-10-28T10:56:00.618Z,27.62
2022-10-28T10:58:34.456Z,27.83
2022-10-28T11:01:07.407Z,28.10
2022-10-28T11:03:50.171Z,28.10
2022-10-28T11:06:46.322Z,27.94
2022-10-28T11:09:24.408Z,28.02
2022-10-28T11:11:57.486Z,28.28
2022-10-28T11:14:29.498Z,28.68
2022-10-28T11:17:03.729Z,28.95
2022-10-28T11:19:35.841Z,28.97
2022-10-28T11:22:17.118Z,29.14
2022-10-28T11:25:07.540Z,29.28
2022-10-28T11:27:48.642Z,29.43
2022-10-28T11:30:27.159Z,29.41
2022-10-28T11:33:28.367Z,29.25
2022-10-28T11:36:02.737Z,28.97
2022-10-28T11:38:51.296Z,28.75
2022-10-28T11:41:27.819Z,28.50
2022-10-28T11:44:05.437Z,28.23
2022-10-28T11:46:56.630Z,28.21
2022-10-28T11:50:25.158Z,28.11
2022-10-28T11:53:46.925Z,27.75
2022-10-28T11:56:27.257Z,27.53
2022-10-28T11:59:13.182Z,26.88
2022-10-28T12:02:06.608Z,25.90
2022-10-28T12:04:52.132Z,25.14
2022-10-28T12:07:51.905Z,25.12
2022-10-28T12:10:37.706Z,25.26
2022-10-28T12:13:24.910Z,25.46
2022-10-28T12:15:58.979Z,26.10
2022-10-28T12:18:34.530Z,26.88
2022-10-28T12:21:12.823Z,27.14
2022-10-28T12:23:49.948Z,27.48
2022-10-28T12:26:21.796Z,27.85
2022-10-28T12:28:59.345Z,28.01
2022-10-28T12:31:33.840Z,28.11
2022-10-28T12:34:10.719Z,28.31
2022-10-28T12:36:46.274Z,28.52
2022-10-28T12:39:27.766Z,28.74
2022-10-28T12:42:04.330Z,29.09
2022-10-28T12:44:35.496Z,29.24
2022-10-28T12:47:15.578Z,29.16
2022-10-28T12:49:58.304Z,29.09
2022-10-28T12:52:37.425Z,29.10
2022-10-28T12:55:19.042Z,29.17
2022-10-28T12:57:53.200Z,28.59
2022-10-28T13:00:27.074Z,27.72
2022-10-28T13:03:02.994Z,26.98
2022-10-28T13:05:38.055Z,26.23
2022-10-28T13:08:34.011Z,25.53
2022-10-28T13:11:27.430Z,24.78
2022-10-28T13:13:58.701Z,24.18
2022-10-28T13:16:49.248Z,23.71
2022-10-28T13:19:39.799Z,23.16
2022-10-28T13:25:05.434Z,22.30
2022-10-28T13:30:20.149Z,21.91
2022-10-28T13:33:05.700Z,21.83
2022-10-28T13:35:36.812Z,21.74
2022-10-28T13:38:12.207Z,21.70
2022-10-28T13:41:19.301Z,21.68
2022-10-28T13:44:22.581Z,21.75
2022-10-28T13:47:27.059Z,21.79
2022-10-28T13:50:24.162Z,21.74
2022-10-28T13:53:43.439Z,21.57
2022-10-28T13:56:46.754Z,21.37
2022-10-28T13:59:43.862Z,21.25
2022-10-28T14:02:35.958Z,21.19
2022-10-28T14:05:08.789Z,21.21
2022-10-28T14:07:38.208Z,21.19
2022-10-28T14:10:25.592Z,21.14
2022-10-28T14:12:58.629Z,21.14
2022-10-28T14:15:31.760Z,21.13
2022-10-28T14:18:16.175Z,21.14
2022-10-28T14:21:01.672Z,21.15
2022-10-28T14:24:13.550Z,21.17
2022-10-28T14:27:25.910Z,21.23
2022-10-28T14:30:17.210Z,21.31
2022-10-28T14:33:00.558Z,21.31
2022-10-28T14:35:38.928Z,21.26
2022-10-28T14:38:42.120Z,21.16
2022-10-28T14:41:26.848Z,21.04
2022-10-28T14:44:04.927Z,20.90
2022-10-28T14:46:46.500Z,20.78
2022-10-28T14:49:25.141Z,20.64
2022-10-28T14:51:56.515Z,20.48
2022-10-28T14:54:36.590Z,20.35
2022-10-28T14:57:11.783Z,20.21
2022-10-28T14:59:47.788Z,20.08
2022-10-28T15:02:19.687Z,19.98
2022-10-28T15:05:00.614Z,19.88
2022-10-28T15:07:37.895Z,19.79
2022-10-28T15:10:18.322Z,19.66
2022-10-28T15:12:58.727Z,19.55
2022-10-28T15:22:05.179Z,19.18
2022-10-28T15:55:02.862Z,19.17
2022-10-28T15:57:39.910Z,18.82
2022-10-28T16:00:58.060Z,18.49
2022-10-28T16:03:59.821Z,18.18
2022-10-28T16:06:44.203Z,17.88
2022-10-28T16:09:21.473Z,17.61
2022-10-28T16:11:57.553Z,17.39
2022-10-28T16:35:05.734Z,16.74
2022-10-28T16:37:41.831Z,16.63
2022-10-28T16:40:37.725Z,16.49
2022-10-28T16:43:07.215Z,16.33
2022-10-28T16:45:37.845Z,16.21
2022-10-28T16:48:13.880Z,16.12
2022-10-28T16:50:46.190Z,16.04
2022-10-28T16:53:17.453Z,15.98
2022-10-28T16:55:48.068Z,15.91
2022-10-28T16:58:21.886Z,15.86
2022-10-28T17:00:55.428Z,15.81
2022-10-28T17:03:26.048Z,15.78
2022-10-28T17:06:04.933Z,15.77
2022-10-28T17:11:28.907Z,15.69
2022-10-28T17:13:59.503Z,15.64
2022-10-28T17:16:30.155Z,15.62
2022-10-28T17:19:00.767Z,15.60
2022-10-28T17:21:31.395Z,15.58
2022-10-28T17:24:02.045Z,15.55
2022-10-28T17:26:32.874Z,15.52
2022-10-28T17:29:06.509Z,15.49
2022-10-28T17:31:40.890Z,15.43
2022-10-28T17:34:15.220Z,15.41
2022-10-28T17:36:46.299Z,15.40
2022-10-28T17:39:20.721Z,15.38
2022-10-28T17:41:54.041Z,15.35
2022-10-28T17:44:25.394Z,15.32
2022-10-28T17:46:56.102Z,15.29
2022-10-28T18:06:33.021Z,15.79
2022-10-28T18:33:37.087Z,16.64
2022-10-28T18:36:49.726Z,16.53
2022-10-28T18:39:20.589Z,16.31
2022-10-28T18:41:58.700Z,16.17
2022-10-28T18:57:04.475Z,15.94
2022-10-28T19:00:05.116Z,15.92
2022-10-28T19:02:47.560Z,15.90
2022-10-28T19:05:26.569Z,15.90
2022-10-28T19:07:57.783Z,15.91
2022-10-28T19:10:28.492Z,15.91
2022-10-28T19:13:05.597Z,15.91
2022-10-28T19:15:42.065Z,15.91
2022-10-28T19:18:14.223Z,15.91
2022-10-28T19:20:47.551Z,15.93
2022-10-28T19:23:18.136Z,15.94
2022-10-28T19:25:57.577Z,15.96
2022-10-28T19:28:32.480Z,15.99
2022-10-28T19:33:55.991Z,16.01
2022-10-28T19:36:27.860Z,16.01
2022-10-28T19:38:59.109Z,16.02
2022-10-28T19:41:30.997Z,16.03
2022-10-28T19:44:02.653Z,16.02
2022-10-28T19:46:34.954Z,16.01
2022-10-28T19:49:09.495Z,15.97
2022-10-28T19:51:42.232Z,15.96
2022-10-28T19:54:12.426Z,15.94
2022-10-28T19:56:50.361Z,15.93
2022-10-28T19:59:39.926Z,15.96
2022-10-28T20:02:11.663Z,15.94
2022-10-28T20:04:42.363Z,15.94
2022-10-28T20:07:13.204Z,15.92
2022-10-28T20:09:44.778Z,15.91
2022-10-28T20:12:18.091Z,15.90
2022-10-28T20:14:48.905Z,15.90
2022-10-28T20:17:21.868Z,15.88
2022-10-28T20:19:52.480Z,15.85
2022-10-28T20:22:22.927Z,15.82
2022-10-28T20:24:53.574Z,15.78
2022-10-28T20:27:24.338Z,15.75
2022-10-28T20:29:57.902Z,15.73
2022-10-28T20:32:28.911Z,15.73
2022-10-28T20:35:02.215Z,15.73
2022-10-28T20:37:32.724Z,15.73
2022-10-28T20:40:07.253Z,15.74
2022-10-28T20:42:38.322Z,15.76
2022-10-28T20:45:10.315Z,15.75
2022-10-28T20:47:40.955Z,15.75
2022-10-28T20:50:13.251Z,15.72
2022-10-28T20:52:45.021Z,15.65
2022-10-28T20:55:18.544Z,15.58
2022-10-28T20:57:49.205Z,15.50
2022-10-28T21:00:20.424Z,15.42
2022-10-28T21:02:51.044Z,15.36
2022-10-28T21:05:21.842Z,15.29
2022-10-28T21:07:52.550Z,15.22
2022-10-28T21:10:23.751Z,15.17
2022-10-28T21:12:54.251Z,15.10
2022-10-28T21:15:27.041Z,15.06
2022-10-28T21:18:01.537Z,15.04
2022-10-28T21:20:32.669Z,15.02
2022-10-28T21:23:03.211Z,15.02
2022-10-28T21:25:37.076Z,15.02
2022-10-28T21:28:07.828Z,15.05
2022-10-28T21:30:38.385Z,15.04
2022-10-28T21:33:11.295Z,15.02
2022-10-28T21:35:42.069Z,14.98
2022-10-28T21:38:15.299Z,14.95
2022-10-28T21:40:45.920Z,14.92
2022-10-28T21:43:16.594Z,14.85
2022-10-28T21:45:47.056Z,14.80
2022-10-28T21:48:17.464Z,14.74
2022-10-28T21:50:53.670Z,14.68
2022-10-28T21:53:24.422Z,14.60
2022-10-28T21:56:02.586Z,14.54
2022-10-28T21:58:33.662Z,14.48
2022-10-28T22:01:09.150Z,14.43
2022-10-28T22:03:40.319Z,14.40
2022-10-28T22:06:11.336Z,14.38
2022-10-28T22:08:41.927Z,14.35
2022-10-28T22:11:16.065Z,14.31
2022-10-28T22:13:46.690Z,14.27
2022-10-28T22:16:18.833Z,14.23
2022-10-28T22:18:49.323Z,14.22
2022-10-28T22:21:21.435Z,14.20
2022-10-28T22:23:52.573Z,14.19
2022-10-28T22:26:24.848Z,14.18
2022-10-28T22:28:55.861Z,14.15
2022-10-28T22:31:28.484Z,14.14
2022-10-28T22:40:03.745Z,14.27
2022-10-28T22:42:34.477Z,14.27
2022-10-28T22:45:05.292Z,14.29
2022-10-28T22:47:35.821Z,14.28
2022-10-28T22:50:06.962Z,14.27
2022-10-28T22:52:37.583Z,14.26
2022-10-28T22:55:09.273Z,14.24
2022-10-28T22:57:39.739Z,14.20
2022-10-28T23:00:12.628Z,14.14
2022-10-28T23:02:43.301Z,14.10
2022-10-28T23:05:14.052Z,14.10
2022-10-28T23:07:44.658Z,14.12
2022-10-28T23:10:15.372Z,14.13
2022-10-28T23:12:45.973Z,14.15
2022-10-28T23:15:16.559Z,14.15
2022-10-28T23:17:51.785Z,14.14
2022-10-28T23:20:23.420Z,14.16
2022-10-28T23:22:59.934Z,14.19
2022-10-28T23:25:30.463Z,14.24
2022-10-28T23:28:01.003Z,14.28
2022-10-28T23:30:31.565Z,14.34
2022-10-28T23:33:02.095Z,14.40
2022-10-28T23:35:32.538Z,14.48
2022-10-28T23:38:03.069Z,14.55
2022-10-28T23:40:33.578Z,14.62
2022-10-28T23:43:04.169Z,14.68
2022-10-28T23:45:34.701Z,14.72
2022-10-28T23:48:05.524Z,14.75
2022-10-28T23:50:36.620Z,14.79
2022-10-28T23:53:07.132Z,14.85
2022-10-28T23:55:37.706Z,14.95
2022-10-28T23:58:08.439Z,15.06
